Johan Perez

Scout - Santa Fe
4 Apr 2027
Sonntag
Verarbeitung

Persönlichkeit

Anpassungsfähigkeit (16) Ehrgeiz (6) Kontroverse (10) Loyalität (10) Druck (15) Professionalität (16) Fairness (16) Temperament (8)

Profil

Trainerstil Demokratisch
Lizenz Kontinentale A
Entschlossenheit 5
Menschenführung 4
Motivation 6
Disziplin 9
Arbeitszufriedenheit
100%
Ermüdung
0%
Rolle Scout
Gehalt 95.1K p/W
Vertrag 14.03.2028

Leistung

Verhalten Gut
Trainingseffektivität
38%
Spielerentwicklung
65%
Verletzungsprävention
55%
Taktische Umsetzung
30%

Letzte Ereignisse

Nahm an einer Scouting-Besprechung teil jetzt
Empfahl ein Transferziel jetzt
Spieler begutachtet jetzt
Spieler begutachtet jetzt
Spieler begutachtet 7T her
Spiel beobachtet 7T her
Spieler begutachtet 7T her
Spieler begutachtet 7T her

Aktuell beobachtet

91
Spieler Verein Status Fähigkeit Vertrauen Beobachtet Zuletzt beobachtet Letzte Stimme
Oswin Appollis Orlando Pirates Aktiv 136 / 112 40% 1 03.04.2027 -
Leif Davis Ipswich Town Aktiv 134 / 139 40% 1 03.04.2027 -
Marko Farji Venezia Aktiv 121 / 112 40% 1 01.04.2027 -
Cian Ashford Cardiff City Aktiv 114 / 130 40% 1 01.04.2027 -
Neco Williams Nottingham Forest Aktiv 143 / 140 40% 2 30.03.2027 -
Tariq Lamptey Queens Park Rangers Aktiv 148 / 129 40% 1 30.03.2027 -
Dylan Lawlor Cardiff City Aktiv 102 / 111 40% 1 28.03.2027 -
Riyad Idrissi Cagliari Aktiv 117 / 133 40% 1 28.03.2027 -
Finn Azaz Southampton Aktiv 128 / 130 40% 2 27.03.2027 -
Tyrese Campbell Sheffield United Aktiv 140 / 131 40% 1 27.03.2027 -
Jaden Philogene Ipswich Town Aktiv 156 / 137 40% 1 26.03.2027 -
Quilindschy Hartman Burnley Aktiv 135 / 151 40% 1 26.03.2027 -
Welington Southampton Aktiv 122 / 126 40% 1 23.03.2027 -
Jaygo van Ommeren Utrecht Aktiv 100 / 104 40% 2 22.03.2027 -
Lucas Jetten Cambuur Aktiv 94 / 107 40% 1 22.03.2027 -
Leandro Andrade Polissia Aktiv 125 / 137 40% 2 20.03.2027 -
Jack Rudoni Coventry City Aktiv 133 / 131 40% 1 20.03.2027 -
Percy Erasmus SuperSport United Aktiv 127 / 129 40% 2 19.03.2027 -
Carlos Vicente Birmingham Aktiv 137 / 153 40% 2 19.03.2027 -
Ander Barrenetxea Real Sociedad Aktiv 146 / 151 40% 2 18.03.2027 -
Enzo Le Fée Sunderland Aktiv 155 / 135 40% 1 18.03.2027 -
Gonçalo Oliveira Benfica Aktiv 106 / 121 40% 1 17.03.2027 -
Salvador Blopá Sporting CP Aktiv 112 / 130 40% 1 17.03.2027 -
Johan Manzambi Aston Villa Aktiv 137 / 152 40% 2 11.03.2027 -
Bernardo Lima Porto Aktiv 105 / 105 40% 2 09.03.2027 -
Matvey Kislyak CSKA Moscow Aktiv 123 / 147 40% 1 09.03.2027 -
Milan Roganović Partizan Aktiv 100 / 122 40% 1 05.03.2027 -
Lennon Miller Udinese Aktiv 127 / 125 40% 1 05.03.2027 -
Luka Vušković Brighton Aktiv 148 / 139 40% 1 15.02.2027 -
Roger Hinojo Espanyol Aktiv 128 / 122 40% 1 13.02.2027 -
Sabil Hansen Randers Aktiv 116 / 100 40% 1 12.02.2027 -
Dennis Cirkin Queens Park Rangers Aktiv 137 / 124 40% 1 10.02.2027 -
Alex Robertson Cardiff City Aktiv 117 / 130 40% 1 09.02.2027 -
Thierno Barry Everton Aktiv 132 / 146 40% 1 08.02.2027 -
Tom Fellows Southampton Aktiv 128 / 126 40% 1 08.02.2027 -
Helinho Toluca Aktiv 130 / 119 40% 1 06.02.2027 -
Loum Tchaouna Coventry City Aktiv 153 / 149 40% 2 05.02.2027 -
Sergey Pinyaev Lokomotiv Moscow Aktiv 144 / 136 40% 1 02.02.2027 -
Sayfallah Ltaief Cracovia Aktiv 112 / 126 40% 1 01.02.2027 -
Kevin Balanta Fortaleza CEIF Aktiv 109 / 116 58% 1 28.12.2026 Befürworten
Franco Díaz KV Oostende Aktiv 135 / 115 40% 1 26.11.2026 -
César Ibáñez Huracán Aktiv 121 / 122 40% 1 26.11.2026 -
Tristan Degreef Anderlecht Aktiv 139 / 127 40% 1 24.11.2026 -
Camilo Perez Cortulua Aktiv 123 / 111 40% 1 24.11.2026 -
Luciano Boggio Nacional Aktiv 120 / 117 40% 2 08.11.2026 -
Felipe Peña Biafore Lanús Aktiv 118 / 123 40% 1 08.11.2026 -
Nazareno Colombo Racing Club Abgelehnt 124 / 118 40% 1 07.11.2026 Mehr Infos nötig
Jherson Mosquera Newell's Old Boys Aktiv 126 / 119 40% 1 07.11.2026 -
Kevin Lomónaco Independiente Abgelehnt 142 / 139 40% 1 02.11.2026 Mehr Infos nötig
Arturo Cipriani Astra Abgelehnt 129 / 146 40% 1 02.11.2026 Mehr Infos nötig
Kevin Zenón Boca Juniors Aktiv 130 / 124 40% 1 27.10.2026 -
Marcos López San Martín Aktiv 127 / 129 40% 1 27.10.2026 -
Julio Alonso Huesca Aktiv 118 / 118 40% 2 26.10.2026 -
Federico Navarro Rosario Central Aktiv 120 / 133 40% 1 26.10.2026 -
Damián Fernández Defensa y Justicia Aktiv 115 / 129 40% 2 25.10.2026 -
Lucas Agazzi Defensor Sporting Aktiv 120 / 133 40% 1 24.10.2026 -
Agustín Hausch Defensa y Justicia Aktiv 115 / 116 40% 1 24.10.2026 -
Ho-yeon Jung Minnesota United FC Aktiv 108 / 131 40% 1 24.10.2026 -
Rodrigo Herrera Newell's Old Boys Aktiv 116 / 114 40% 1 23.10.2026 -
Leandro Lozano Boca Juniors Aktiv 122 / 128 40% 1 23.10.2026 -
Ramiro Peralta Juventud Aktiv 107 / 128 40% 1 19.10.2026 -
Angelo Gattermayer Wolfsberger AC Aktiv 122 / 125 40% 1 19.10.2026 -
Juan Carlos Portillo River Plate Aktiv 118 / 127 40% 1 17.10.2026 -
Siro Rosané Estudiantes Aktiv 108 / 120 40% 1 17.10.2026 -
Jaminton Campaz Rosario Central Aktiv 131 / 122 40% 1 16.10.2026 -
Alexis Steimbach Gimnasia La Plata Aktiv 116 / 118 40% 1 16.10.2026 -
Lautaro Blanco Boca Juniors Aktiv 121 / 128 40% 1 10.10.2026 -
Braian Ojeda Orlando City Aktiv 121 / 110 40% 1 10.10.2026 -
Martín Ortega Newell's Old Boys Aktiv 132 / 122 40% 1 07.10.2026 -
Franco Ibarra Rosario Central Aktiv 118 / 123 40% 1 07.10.2026 -
Ezequiel Bullaude Santos Laguna Aktiv 110 / 122 40% 1 30.09.2026 -
Aarón Molinas Defensa y Justicia Aktiv 123 / 121 40% 1 25.09.2026 -
Franco Watson Lanús Aktiv 132 / 128 40% 1 25.09.2026 -
Justo Giani Universidad Catolica Aktiv 130 / 119 40% 1 24.09.2026 -
Manuel Mónaco Sarmiento Abgelehnt 112 / 124 40% 1 24.09.2026 Mehr Infos nötig
Lucas Souto Defensa y Justicia Aktiv 133 / 117 40% 1 21.09.2026 -
Samuel Velásquez Atletico Nacional Aktiv 117 / 119 40% 1 21.09.2026 -
Ramiro Ruiz Rodríguez Atlético Tucumán Aktiv 118 / 112 40% 1 20.09.2026 -
Jeremy Márquez Cruz Azul Aktiv 136 / 113 40% 1 20.09.2026 -
Santiago Simón Toluca Aktiv 136 / 131 40% 1 19.09.2026 -
Franco Romero Toluca Aktiv 143 / 136 40% 1 19.09.2026 -
Nicolás Fonseca Leon Aktiv 114 / 112 40% 2 15.09.2026 -
Fidel Ambríz Monterrey Aktiv 140 / 138 40% 1 15.09.2026 -
César Araújo Tigres Aktiv 138 / 114 40% 1 14.09.2026 -
Bryan González Guadalajara Aktiv 124 / 130 40% 1 13.09.2026 -
Daniel Pereira CF Montreal Aktiv 106 / 106 40% 1 11.09.2026 -
Ignacio Schor O'Higgins Aktiv 118 / 114 40% 1 11.09.2026 -
Liam Varela Veracruz Aktiv 131 / 123 40% 1 07.09.2026 -
Bruno Amione Santos Laguna Aktiv 119 / 129 40% 1 07.09.2026 -
Matías Aguirre Vélez Aktiv 75 / 89 40% 1 01.08.2026 -
Agustín Granja Boston River Aktiv 83 / 82 40% 1 01.08.2026 -